Historyczne dane pomiarowe

Dodano dane terminowe – wersja testowa.

Dane z okresu 1951-2019

Wersja bazy: 1.34 [2019-03-16, lista zmian], aktualizacja planowana na 2019-04-15

Dane meteo z obszaru Polski uzyskane na podstawie danych udostępnionych przez Instytut Meteorologii i Gospodarki Wodnej – Państwowy Instytut Badawczy.

 

Wybierz Datę:    

       

TemperaturaWilgotnośćWiatrCiśnienieOpadyŚniegCzas trwania zjawisk
 Stacja t tx tn tng RH VA  wxwx mslp ppp RRR   cm mm wxwxwxwxwxwxwx
1958-01-17 4.1 4.4 2.6 2.4 96.0 7.7----1012.8- 3.8--x- 0.0-------
1958-01-18 3.2 4.6 1.6 1.0 78.0 6.0----1004.2- 0.6--x- 2.6-------
1958-01-19 2.4 6.2 0.4 0.9 81.0 6.0---- 984.7- 3.6--x- 0.0-------
1958-01-20 0.0 2.1 -2.9 -5.5 76.0 4.5---- 989.9- 0.0--x- 2.8-------
1958-01-21 -0.5 1.5 -1.5 -3.7 83.0 4.9---- 998.4- 0.0--x- 1.8-------
1958-01-22 -0.5 1.7 -2.5 -4.1 69.0 4.0---- 997.2- 0.0--x- 2.2-------
1958-01-23 -2.1 2.5 -4.5 -3.7 69.0 3.7----1001.5- 0.0--x- 4.5-------
1958-01-24 -3.5 1.4 -7.0-10.2 75.0 3.6----1008.7- 0.0--x- 3.1-------
1958-01-25 -4.3 0.9 -9.4-12.2 89.0 4.0----1021.5- 0.0--x- 6.5-------
1958-01-26 -3.6 2.7 -8.9-13.0 77.0 3.6----1025.6- 0.0--x- 5.3-------
1958-01-27 -1.2 5.2 -6.8 -8.2 48.0 2.5----1028.0- 0.0--x- 8.3-------
1958-01-28 -1.1 7.0 -7.5 -9.7 47.0 2.4----1024.3- 0.0--x- 8.5-------
1958-01-29 -0.3 7.0 -5.5-11.7 52.0 2.9----1018.2- 0.0--x- 8.3-------
1958-01-30 -0.4 1.7 -7.4 -8.7 91.0 5.3----1020.4- 0.0--x- 4.5-------
1958-01-31 0.2 2.7 -0.4 1.3 98.0 6.3----1023.6- 0.0--x- 0.0-------
1958-02-01 -0.9 -0.4 -1.3 -0.1100.0 5.9----1021.4- 0.0--x- 0.0-------
1958-02-02 1.2 2.7 -2.0 -1.5 90.0 5.9----1017.5- 4.6--x- 0.0-------
1958-02-03 2.9 3.8 1.7 2.0 76.0 5.9----1013.2- 0.3--x- 3.4-------
1958-02-04 1.2 3.0 0.0 1.6 80.0 5.5----1012.2- 2.0--x- 0.0-------
1958-02-05 5.4 6.6 -0.3 0.2 82.0 7.2---- 985.9- 0.2--x- 0.0-------
1958-02-06 -0.3 6.6 -2.3 1.3 82.0 5.1---- 988.7- 2.2--x- 0.4-------
1958-02-07 -2.6 1.5 -6.5 -9.9 89.0 4.7---- 993.0- 0.4--x- 5.7-------
1958-02-08 0.1 2.2 -6.0-10.6 84.0 4.9---- 995.1- 1.7--x- 0.3-------
1958-02-09 5.6 10.3 2.2 1.1 66.0 6.3---- 996.3- 0.0--x- 6.2-------
1958-02-10 7.8 14.0 2.5 -0.1 76.0 8.3---- 998.2- 0.0--x- 3.6-------
1958-02-11 8.0 11.7 5.3 -0.7 70.0 7.6---- 996.0- 0.1--x- 2.2-------
1958-02-12 8.8 11.9 6.0 2.2 78.0 8.9---- 999.9- 5.6--x- 1.8-------
1958-02-13 6.7 11.3 3.7 6.4 78.0 8.1----1011.6- 1.7--x- 6.3-------
1958-02-14 12.6 15.4 3.6 -1.5 76.0 10.8----1013.2- 0.0--x- 1.6-------
1958-02-15 11.0 13.7 9.1 9.6 90.0 11.9----1013.1- 5.7--x- 0.4-------
136.6 ms

 

Źródłem pochodzenia danych jest Instytut Meteorologii i Gospodarki Wodnej – Państwowy Instytut Badawczy. Dane Instytutu Meteorologii i Gospodarki Wodnej – Państwowego Instytutu Badawczego zostały przetworzone.

Dane źródłowe można odnaleźć na stronie https://dane.imgw.pl